sensor_id;sensor_type;location;lat;lon;timestamp;P1;durP1;ratioP1;P2;durP2;ratioP2
71317;SDS011;59106;44.706;18.310;2023-06-22T00:00:53;30.90;;;19.02;;
71317;SDS011;59106;44.706;18.310;2023-06-22T00:03:30;31.05;;;19.10;;
71317;SDS011;59106;44.706;18.310;2023-06-22T00:05:56;30.80;;;18.85;;
71317;SDS011;59106;44.706;18.310;2023-06-22T00:08:22;29.13;;;18.73;;
71317;SDS011;59106;44.706;18.310;2023-06-22T00:10:48;29.83;;;18.77;;
71317;SDS011;59106;44.706;18.310;2023-06-22T00:13:14;28.83;;;19.10;;
71317;SDS011;59106;44.706;18.310;2023-06-22T00:15:41;31.23;;;18.80;;
71317;SDS011;59106;44.706;18.310;2023-06-22T00:18:07;30.63;;;19.13;;
71317;SDS011;59106;44.706;18.310;2023-06-22T00:20:34;32.65;;;19.60;;
71317;SDS011;59106;44.706;18.310;2023-06-22T00:23:03;32.05;;;19.98;;
71317;SDS011;59106;44.706;18.310;2023-06-22T00:25:34;32.47;;;19.35;;
71317;SDS011;59106;44.706;18.310;2023-06-22T00:28:00;29.63;;;19.13;;
71317;SDS011;59106;44.706;18.310;2023-06-22T00:30:26;33.03;;;19.57;;
71317;SDS011;59106;44.706;18.310;2023-06-22T00:32:52;32.35;;;19.77;;
71317;SDS011;59106;44.706;18.310;2023-06-22T00:35:19;32.58;;;19.10;;
71317;SDS011;59106;44.706;18.310;2023-06-22T00:37:46;31.70;;;19.50;;
71317;SDS011;59106;44.706;18.310;2023-06-22T00:40:13;32.63;;;20.10;;
71317;SDS011;59106;44.706;18.310;2023-06-22T00:42:40;31.85;;;20.95;;
71317;SDS011;59106;44.706;18.310;2023-06-22T00:45:06;29.88;;;19.33;;
71317;SDS011;59106;44.706;18.310;2023-06-22T00:47:35;32.22;;;20.02;;
71317;SDS011;59106;44.706;18.310;2023-06-22T00:50:01;32.88;;;19.67;;
71317;SDS011;59106;44.706;18.310;2023-06-22T00:52:29;31.80;;;20.73;;
71317;SDS011;59106;44.706;18.310;2023-06-22T00:54:57;33.17;;;20.67;;
71317;SDS011;59106;44.706;18.310;2023-06-22T00:57:24;32.65;;;20.92;;
71317;SDS011;59106;44.706;18.310;2023-06-22T00:59:54;32.15;;;20.35;;
71317;SDS011;59106;44.706;18.310;2023-06-22T01:02:20;32.38;;;21.13;;
71317;SDS011;59106;44.706;18.310;2023-06-22T01:04:46;31.23;;;20.13;;
71317;SDS011;59106;44.706;18.310;2023-06-22T01:10:16;31.50;;;20.33;;
71317;SDS011;59106;44.706;18.310;2023-06-22T01:12:44;32.50;;;19.60;;
71317;SDS011;59106;44.706;18.310;2023-06-22T01:15:20;33.47;;;20.07;;
71317;SDS011;59106;44.706;18.310;2023-06-22T01:17:47;33.42;;;20.52;;
71317;SDS011;59106;44.706;18.310;2023-06-22T01:20:14;33.00;;;20.60;;
71317;SDS011;59106;44.706;18.310;2023-06-22T01:22:46;33.63;;;20.70;;
71317;SDS011;59106;44.706;18.310;2023-06-22T01:25:20;32.10;;;20.90;;
71317;SDS011;59106;44.706;18.310;2023-06-22T01:28:00;31.97;;;21.13;;
71317;SDS011;59106;44.706;18.310;2023-06-22T01:30:30;32.13;;;21.10;;
71317;SDS011;59106;44.706;18.310;2023-06-22T01:32:57;32.65;;;21.60;;
71317;SDS011;59106;44.706;18.310;2023-06-22T01:35:23;33.35;;;20.83;;
71317;SDS011;59106;44.706;18.310;2023-06-22T01:37:49;37.38;;;23.45;;
71317;SDS011;59106;44.706;18.310;2023-06-22T01:40:16;37.63;;;23.40;;
71317;SDS011;59106;44.706;18.310;2023-06-22T01:42:43;39.47;;;25.17;;
71317;SDS011;59106;44.706;18.310;2023-06-22T01:45:11;38.05;;;24.63;;
71317;SDS011;59106;44.706;18.310;2023-06-22T01:47:40;35.17;;;21.75;;
71317;SDS011;59106;44.706;18.310;2023-06-22T01:50:08;33.38;;;21.38;;
71317;SDS011;59106;44.706;18.310;2023-06-22T01:52:35;34.73;;;22.90;;
71317;SDS011;59106;44.706;18.310;2023-06-22T01:55:04;34.70;;;21.77;;
71317;SDS011;59106;44.706;18.310;2023-06-22T01:57:33;38.00;;;23.23;;
71317;SDS011;59106;44.706;18.310;2023-06-22T02:00:08;36.22;;;22.27;;
71317;SDS011;59106;44.706;18.310;2023-06-22T02:02:52;35.70;;;22.20;;
71317;SDS011;59106;44.706;18.310;2023-06-22T02:05:20;33.07;;;20.80;;
71317;SDS011;59106;44.706;18.310;2023-06-22T02:11:09;32.92;;;20.10;;
71317;SDS011;59106;44.706;18.310;2023-06-22T02:13:36;34.72;;;21.60;;
71317;SDS011;59106;44.706;18.310;2023-06-22T02:16:02;34.85;;;21.42;;
71317;SDS011;59106;44.706;18.310;2023-06-22T02:18:28;35.20;;;22.00;;
71317;SDS011;59106;44.706;18.310;2023-06-22T02:20:54;35.60;;;22.33;;
71317;SDS011;59106;44.706;18.310;2023-06-22T02:23:20;35.40;;;21.15;;
71317;SDS011;59106;44.706;18.310;2023-06-22T02:25:46;34.80;;;22.23;;
71317;SDS011;59106;44.706;18.310;2023-06-22T02:28:12;34.88;;;21.48;;
71317;SDS011;59106;44.706;18.310;2023-06-22T02:30:37;33.13;;;21.03;;
71317;SDS011;59106;44.706;18.310;2023-06-22T02:33:04;36.50;;;21.38;;
71317;SDS011;59106;44.706;18.310;2023-06-22T02:35:29;34.47;;;22.00;;
71317;SDS011;59106;44.706;18.310;2023-06-22T02:37:59;36.53;;;22.50;;
71317;SDS011;59106;44.706;18.310;2023-06-22T02:40:26;35.47;;;21.73;;
71317;SDS011;59106;44.706;18.310;2023-06-22T02:42:52;36.78;;;21.48;;
71317;SDS011;59106;44.706;18.310;2023-06-22T02:45:18;33.55;;;21.65;;
71317;SDS011;59106;44.706;18.310;2023-06-22T02:47:44;32.03;;;21.40;;
71317;SDS011;59106;44.706;18.310;2023-06-22T02:50:10;34.75;;;22.30;;
71317;SDS011;59106;44.706;18.310;2023-06-22T02:52:36;34.00;;;21.20;;
71317;SDS011;59106;44.706;18.310;2023-06-22T02:55:01;33.03;;;20.60;;
71317;SDS011;59106;44.706;18.310;2023-06-22T02:57:27;33.53;;;21.08;;
71317;SDS011;59106;44.706;18.310;2023-06-22T02:59:53;41.80;;;21.67;;
71317;SDS011;59106;44.706;18.310;2023-06-22T03:02:20;37.97;;;22.80;;
71317;SDS011;59106;44.706;18.310;2023-06-22T03:04:47;35.40;;;21.85;;
71317;SDS011;59106;44.706;18.310;2023-06-22T03:07:14;33.88;;;21.95;;
71317;SDS011;59106;44.706;18.310;2023-06-22T03:09:40;35.25;;;21.80;;
71317;SDS011;59106;44.706;18.310;2023-06-22T03:12:07;36.03;;;22.43;;
71317;SDS011;59106;44.706;18.310;2023-06-22T03:14:33;37.30;;;22.27;;
71317;SDS011;59106;44.706;18.310;2023-06-22T03:16:59;37.72;;;22.10;;
71317;SDS011;59106;44.706;18.310;2023-06-22T03:19:28;35.97;;;22.73;;
71317;SDS011;59106;44.706;18.310;2023-06-22T03:21:55;35.83;;;23.17;;
71317;SDS011;59106;44.706;18.310;2023-06-22T03:24:21;41.42;;;22.83;;
71317;SDS011;59106;44.706;18.310;2023-06-22T03:26:47;38.25;;;23.58;;
71317;SDS011;59106;44.706;18.310;2023-06-22T03:29:12;36.77;;;22.93;;
71317;SDS011;59106;44.706;18.310;2023-06-22T03:31:38;38.30;;;23.30;;
71317;SDS011;59106;44.706;18.310;2023-06-22T03:34:04;40.20;;;22.23;;
71317;SDS011;59106;44.706;18.310;2023-06-22T03:36:30;40.47;;;23.73;;
71317;SDS011;59106;44.706;18.310;2023-06-22T03:38:56;37.05;;;23.40;;
71317;SDS011;59106;44.706;18.310;2023-06-22T03:41:22;34.70;;;21.90;;
71317;SDS011;59106;44.706;18.310;2023-06-22T03:43:47;37.15;;;22.88;;
71317;SDS011;59106;44.706;18.310;2023-06-22T03:46:13;38.73;;;22.77;;
71317;SDS011;59106;44.706;18.310;2023-06-22T03:48:39;36.63;;;21.80;;
71317;SDS011;59106;44.706;18.310;2023-06-22T03:51:05;34.77;;;22.20;;
71317;SDS011;59106;44.706;18.310;2023-06-22T03:53:31;35.63;;;22.17;;
71317;SDS011;59106;44.706;18.310;2023-06-22T03:55:57;34.67;;;22.17;;
71317;SDS011;59106;44.706;18.310;2023-06-22T03:58:22;37.10;;;22.10;;
71317;SDS011;59106;44.706;18.310;2023-06-22T04:00:52;37.55;;;22.92;;
71317;SDS011;59106;44.706;18.310;2023-06-22T04:03:18;36.58;;;22.30;;
71317;SDS011;59106;44.706;18.310;2023-06-22T04:05:46;37.42;;;22.02;;
71317;SDS011;59106;44.706;18.310;2023-06-22T04:08:15;35.40;;;21.75;;
71317;SDS011;59106;44.706;18.310;2023-06-22T04:10:41;36.67;;;22.40;;
71317;SDS011;59106;44.706;18.310;2023-06-22T04:13:07;40.85;;;22.50;;
71317;SDS011;59106;44.706;18.310;2023-06-22T04:15:34;37.75;;;23.40;;
71317;SDS011;59106;44.706;18.310;2023-06-22T04:17:59;40.43;;;22.83;;
71317;SDS011;59106;44.706;18.310;2023-06-22T04:20:25;35.33;;;22.77;;
71317;SDS011;59106;44.706;18.310;2023-06-22T04:22:52;37.23;;;22.47;;
71317;SDS011;59106;44.706;18.310;2023-06-22T04:25:18;35.63;;;22.23;;
71317;SDS011;59106;44.706;18.310;2023-06-22T04:27:44;41.33;;;21.70;;
71317;SDS011;59106;44.706;18.310;2023-06-22T04:30:10;34.13;;;22.00;;
71317;SDS011;59106;44.706;18.310;2023-06-22T04:32:37;35.07;;;22.20;;
71317;SDS011;59106;44.706;18.310;2023-06-22T04:35:03;33.85;;;22.25;;
71317;SDS011;59106;44.706;18.310;2023-06-22T04:37:32;41.95;;;22.33;;
71317;SDS011;59106;44.706;18.310;2023-06-22T04:39:58;40.05;;;22.80;;
71317;SDS011;59106;44.706;18.310;2023-06-22T04:42:25;34.33;;;21.93;;
71317;SDS011;59106;44.706;18.310;2023-06-22T04:44:51;34.15;;;21.88;;
71317;SDS011;59106;44.706;18.310;2023-06-22T04:47:17;33.33;;;21.37;;
71317;SDS011;59106;44.706;18.310;2023-06-22T04:49:43;35.15;;;21.55;;
71317;SDS011;59106;44.706;18.310;2023-06-22T04:52:10;32.58;;;21.75;;
71317;SDS011;59106;44.706;18.310;2023-06-22T04:54:37;33.72;;;21.45;;
71317;SDS011;59106;44.706;18.310;2023-06-22T04:57:04;34.42;;;22.10;;
71317;SDS011;59106;44.706;18.310;2023-06-22T04:59:31;35.70;;;23.37;;
71317;SDS011;59106;44.706;18.310;2023-06-22T05:01:57;34.63;;;22.80;;
71317;SDS011;59106;44.706;18.310;2023-06-22T05:04:24;36.33;;;23.20;;
71317;SDS011;59106;44.706;18.310;2023-06-22T05:06:52;34.38;;;22.75;;
71317;SDS011;59106;44.706;18.310;2023-06-22T05:09:20;37.17;;;23.37;;
71317;SDS011;59106;44.706;18.310;2023-06-22T05:11:46;33.45;;;22.77;;
71317;SDS011;59106;44.706;18.310;2023-06-22T05:14:12;37.00;;;24.23;;
71317;SDS011;59106;44.706;18.310;2023-06-22T05:16:38;37.28;;;22.00;;
71317;SDS011;59106;44.706;18.310;2023-06-22T05:19:05;33.72;;;22.38;;
71317;SDS011;59106;44.706;18.310;2023-06-22T05:21:30;36.03;;;23.60;;
71317;SDS011;59106;44.706;18.310;2023-06-22T05:23:57;37.65;;;24.30;;
71317;SDS011;59106;44.706;18.310;2023-06-22T05:26:28;40.33;;;23.50;;
71317;SDS011;59106;44.706;18.310;2023-06-22T05:28:54;37.72;;;24.05;;
71317;SDS011;59106;44.706;18.310;2023-06-22T05:31:20;36.97;;;22.57;;
71317;SDS011;59106;44.706;18.310;2023-06-22T05:33:46;34.17;;;22.70;;
71317;SDS011;59106;44.706;18.310;2023-06-22T05:36:12;34.45;;;22.75;;
71317;SDS011;59106;44.706;18.310;2023-06-22T05:38:38;35.73;;;23.57;;
71317;SDS011;59106;44.706;18.310;2023-06-22T05:41:04;42.17;;;25.50;;
71317;SDS011;59106;44.706;18.310;2023-06-22T05:43:30;38.78;;;24.30;;
71317;SDS011;59106;44.706;18.310;2023-06-22T05:45:56;42.10;;;26.37;;
71317;SDS011;59106;44.706;18.310;2023-06-22T05:48:22;36.40;;;24.10;;
71317;SDS011;59106;44.706;18.310;2023-06-22T05:50:48;35.88;;;23.48;;
71317;SDS011;59106;44.706;18.310;2023-06-22T05:53:14;40.53;;;25.65;;
71317;SDS011;59106;44.706;18.310;2023-06-22T05:55:40;41.63;;;26.77;;
71317;SDS011;59106;44.706;18.310;2023-06-22T05:58:06;40.72;;;28.13;;
71317;SDS011;59106;44.706;18.310;2023-06-22T06:00:32;41.15;;;28.20;;
71317;SDS011;59106;44.706;18.310;2023-06-22T06:02:58;44.17;;;29.63;;
71317;SDS011;59106;44.706;18.310;2023-06-22T06:05:32;44.70;;;28.35;;
71317;SDS011;59106;44.706;18.310;2023-06-22T06:07:59;42.13;;;28.83;;
71317;SDS011;59106;44.706;18.310;2023-06-22T06:10:25;42.50;;;27.17;;
71317;SDS011;59106;44.706;18.310;2023-06-22T06:12:51;38.97;;;27.42;;
71317;SDS011;59106;44.706;18.310;2023-06-22T06:15:17;43.93;;;29.90;;
71317;SDS011;59106;44.706;18.310;2023-06-22T06:17:49;43.90;;;30.95;;
71317;SDS011;59106;44.706;18.310;2023-06-22T06:20:15;38.30;;;26.90;;
71317;SDS011;59106;44.706;18.310;2023-06-22T06:22:41;43.25;;;28.70;;
71317;SDS011;59106;44.706;18.310;2023-06-22T06:25:08;39.58;;;25.85;;
71317;SDS011;59106;44.706;18.310;2023-06-22T06:27:34;36.03;;;25.47;;
71317;SDS011;59106;44.706;18.310;2023-06-22T06:30:00;36.88;;;25.52;;
71317;SDS011;59106;44.706;18.310;2023-06-22T06:32:26;40.47;;;28.10;;
71317;SDS011;59106;44.706;18.310;2023-06-22T06:34:51;54.20;;;37.47;;
71317;SDS011;59106;44.706;18.310;2023-06-22T06:37:17;43.72;;;30.67;;
71317;SDS011;59106;44.706;18.310;2023-06-22T06:39:44;44.17;;;28.98;;
71317;SDS011;59106;44.706;18.310;2023-06-22T06:42:10;45.53;;;29.35;;
71317;SDS011;59106;44.706;18.310;2023-06-22T06:44:37;42.70;;;29.87;;
71317;SDS011;59106;44.706;18.310;2023-06-22T06:47:04;47.63;;;31.23;;
71317;SDS011;59106;44.706;18.310;2023-06-22T06:49:29;48.83;;;31.45;;
71317;SDS011;59106;44.706;18.310;2023-06-22T06:51:55;43.80;;;31.17;;
71317;SDS011;59106;44.706;18.310;2023-06-22T06:54:21;43.40;;;29.77;;
71317;SDS011;59106;44.706;18.310;2023-06-22T06:56:47;43.33;;;29.95;;
71317;SDS011;59106;44.706;18.310;2023-06-22T06:59:14;44.65;;;28.95;;
71317;SDS011;59106;44.706;18.310;2023-06-22T07:01:41;43.47;;;30.30;;
71317;SDS011;59106;44.706;18.310;2023-06-22T07:04:07;42.57;;;29.50;;
71317;SDS011;59106;44.706;18.310;2023-06-22T07:06:33;43.25;;;29.75;;
71317;SDS011;59106;44.706;18.310;2023-06-22T07:08:59;44.53;;;29.92;;
71317;SDS011;59106;44.706;18.310;2023-06-22T07:11:25;46.90;;;29.13;;
71317;SDS011;59106;44.706;18.310;2023-06-22T07:13:51;43.67;;;30.10;;
71317;SDS011;59106;44.706;18.310;2023-06-22T07:16:17;44.80;;;29.33;;
71317;SDS011;59106;44.706;18.310;2023-06-22T07:18:43;45.95;;;29.20;;
71317;SDS011;59106;44.706;18.310;2023-06-22T07:21:09;44.78;;;28.23;;
71317;SDS011;59106;44.706;18.310;2023-06-22T07:23:35;43.13;;;29.40;;
71317;SDS011;59106;44.706;18.310;2023-06-22T07:26:01;41.30;;;27.52;;
71317;SDS011;59106;44.706;18.310;2023-06-22T07:28:27;39.63;;;27.08;;
71317;SDS011;59106;44.706;18.310;2023-06-22T07:30:53;37.60;;;25.50;;
71317;SDS011;59106;44.706;18.310;2023-06-22T07:33:19;40.15;;;26.00;;
71317;SDS011;59106;44.706;18.310;2023-06-22T07:35:45;36.70;;;24.75;;
71317;SDS011;59106;44.706;18.310;2023-06-22T07:38:12;35.80;;;24.83;;
71317;SDS011;59106;44.706;18.310;2023-06-22T07:40:40;34.77;;;24.80;;
71317;SDS011;59106;44.706;18.310;2023-06-22T07:43:07;36.85;;;24.80;;
71317;SDS011;59106;44.706;18.310;2023-06-22T07:45:33;116.13;;;85.63;;
71317;SDS011;59106;44.706;18.310;2023-06-22T07:48:00;35.42;;;24.20;;
71317;SDS011;59106;44.706;18.310;2023-06-22T07:50:26;35.00;;;22.57;;
71317;SDS011;59106;44.706;18.310;2023-06-22T07:52:52;31.23;;;21.45;;
71317;SDS011;59106;44.706;18.310;2023-06-22T07:55:18;30.88;;;22.27;;
71317;SDS011;59106;44.706;18.310;2023-06-22T07:57:44;29.47;;;20.03;;
71317;SDS011;59106;44.706;18.310;2023-06-22T08:00:10;31.10;;;20.73;;
71317;SDS011;59106;44.706;18.310;2023-06-22T08:02:40;31.67;;;21.98;;
71317;SDS011;59106;44.706;18.310;2023-06-22T08:05:07;30.30;;;20.95;;
71317;SDS011;59106;44.706;18.310;2023-06-22T08:07:36;30.15;;;21.25;;
71317;SDS011;59106;44.706;18.310;2023-06-22T08:10:06;34.47;;;22.73;;
71317;SDS011;59106;44.706;18.310;2023-06-22T08:12:32;33.78;;;23.90;;
71317;SDS011;59106;44.706;18.310;2023-06-22T08:14:58;38.70;;;23.60;;
71317;SDS011;59106;44.706;18.310;2023-06-22T08:17:24;30.95;;;22.13;;
71317;SDS011;59106;44.706;18.310;2023-06-22T08:19:51;32.38;;;20.90;;
71317;SDS011;59106;44.706;18.310;2023-06-22T08:22:16;29.53;;;19.00;;
71317;SDS011;59106;44.706;18.310;2023-06-22T08:24:43;27.13;;;18.23;;
71317;SDS011;59106;44.706;18.310;2023-06-22T08:27:09;22.53;;;14.33;;
71317;SDS011;59106;44.706;18.310;2023-06-22T08:29:35;21.17;;;11.27;;
71317;SDS011;59106;44.706;18.310;2023-06-22T08:32:02;23.13;;;13.23;;
71317;SDS011;59106;44.706;18.310;2023-06-22T08:34:28;35.38;;;25.70;;
71317;SDS011;59106;44.706;18.310;2023-06-22T08:36:54;21.87;;;14.47;;
71317;SDS011;59106;44.706;18.310;2023-06-22T08:39:20;23.67;;;13.85;;
71317;SDS011;59106;44.706;18.310;2023-06-22T08:41:47;23.58;;;12.82;;
71317;SDS011;59106;44.706;18.310;2023-06-22T08:44:13;21.90;;;12.60;;
71317;SDS011;59106;44.706;18.310;2023-06-22T08:46:39;22.15;;;13.15;;
71317;SDS011;59106;44.706;18.310;2023-06-22T08:49:06;22.25;;;13.07;;
71317;SDS011;59106;44.706;18.310;2023-06-22T08:51:32;22.27;;;13.68;;
71317;SDS011;59106;44.706;18.310;2023-06-22T08:53:58;25.27;;;15.00;;
71317;SDS011;59106;44.706;18.310;2023-06-22T08:56:24;26.03;;;15.33;;
71317;SDS011;59106;44.706;18.310;2023-06-22T08:58:50;20.63;;;13.27;;
71317;SDS011;59106;44.706;18.310;2023-06-22T09:01:15;22.40;;;14.20;;
71317;SDS011;59106;44.706;18.310;2023-06-22T09:03:41;27.27;;;15.23;;
71317;SDS011;59106;44.706;18.310;2023-06-22T09:06:07;24.27;;;15.60;;
71317;SDS011;59106;44.706;18.310;2023-06-22T09:08:35;24.23;;;15.50;;
71317;SDS011;59106;44.706;18.310;2023-06-22T09:11:01;24.30;;;15.05;;
71317;SDS011;59106;44.706;18.310;2023-06-22T09:13:29;26.10;;;16.05;;
71317;SDS011;59106;44.706;18.310;2023-06-22T09:15:55;24.98;;;16.67;;
71317;SDS011;59106;44.706;18.310;2023-06-22T09:18:21;24.00;;;17.65;;
71317;SDS011;59106;44.706;18.310;2023-06-22T09:20:47;24.57;;;17.13;;
71317;SDS011;59106;44.706;18.310;2023-06-22T09:23:13;26.77;;;18.10;;
71317;SDS011;59106;44.706;18.310;2023-06-22T09:25:40;25.23;;;16.92;;
71317;SDS011;59106;44.706;18.310;2023-06-22T09:28:06;26.38;;;17.33;;
71317;SDS011;59106;44.706;18.310;2023-06-22T09:30:32;27.87;;;18.50;;
71317;SDS011;59106;44.706;18.310;2023-06-22T09:32:58;25.40;;;17.67;;
71317;SDS011;59106;44.706;18.310;2023-06-22T09:35:25;25.80;;;18.15;;
71317;SDS011;59106;44.706;18.310;2023-06-22T09:37:51;26.20;;;18.10;;
71317;SDS011;59106;44.706;18.310;2023-06-22T09:40:17;24.85;;;16.35;;
71317;SDS011;59106;44.706;18.310;2023-06-22T09:42:43;24.15;;;15.90;;
71317;SDS011;59106;44.706;18.310;2023-06-22T09:45:09;25.55;;;16.45;;
71317;SDS011;59106;44.706;18.310;2023-06-22T09:47:35;38.13;;;28.17;;
71317;SDS011;59106;44.706;18.310;2023-06-22T09:50:01;75.18;;;63.33;;
71317;SDS011;59106;44.706;18.310;2023-06-22T09:52:27;30.90;;;21.55;;
71317;SDS011;59106;44.706;18.310;2023-06-22T09:54:53;25.07;;;16.90;;
71317;SDS011;59106;44.706;18.310;2023-06-22T09:57:19;25.42;;;17.15;;
71317;SDS011;59106;44.706;18.310;2023-06-22T09:59:45;27.27;;;17.38;;
71317;SDS011;59106;44.706;18.310;2023-06-22T10:02:11;28.15;;;17.73;;
71317;SDS011;59106;44.706;18.310;2023-06-22T10:04:36;24.97;;;17.63;;
71317;SDS011;59106;44.706;18.310;2023-06-22T10:07:02;24.02;;;15.60;;
71317;SDS011;59106;44.706;18.310;2023-06-22T10:09:28;22.77;;;15.03;;
71317;SDS011;59106;44.706;18.310;2023-06-22T10:11:54;20.77;;;14.57;;
71317;SDS011;59106;44.706;18.310;2023-06-22T10:14:20;19.42;;;11.68;;
71317;SDS011;59106;44.706;18.310;2023-06-22T10:16:46;17.33;;;11.15;;
71317;SDS011;59106;44.706;18.310;2023-06-22T10:19:11;22.30;;;12.70;;
71317;SDS011;59106;44.706;18.310;2023-06-22T10:21:38;19.40;;;12.52;;
71317;SDS011;59106;44.706;18.310;2023-06-22T10:24:04;20.83;;;13.05;;
71317;SDS011;59106;44.706;18.310;2023-06-22T10:26:34;21.67;;;12.70;;
71317;SDS011;59106;44.706;18.310;2023-06-22T10:29:01;22.67;;;10.85;;
71317;SDS011;59106;44.706;18.310;2023-06-22T10:31:27;19.20;;;11.90;;
71317;SDS011;59106;44.706;18.310;2023-06-22T10:33:53;18.97;;;11.93;;
71317;SDS011;59106;44.706;18.310;2023-06-22T10:36:19;21.08;;;11.68;;
71317;SDS011;59106;44.706;18.310;2023-06-22T10:38:45;19.88;;;11.90;;
71317;SDS011;59106;44.706;18.310;2023-06-22T10:41:12;21.38;;;13.95;;
71317;SDS011;59106;44.706;18.310;2023-06-22T10:43:38;19.13;;;11.47;;
71317;SDS011;59106;44.706;18.310;2023-06-22T10:46:04;21.23;;;13.40;;
71317;SDS011;59106;44.706;18.310;2023-06-22T10:48:29;18.87;;;10.33;;
71317;SDS011;59106;44.706;18.310;2023-06-22T10:50:55;18.55;;;11.23;;
71317;SDS011;59106;44.706;18.310;2023-06-22T10:53:21;17.25;;;10.60;;
71317;SDS011;59106;44.706;18.310;2023-06-22T10:55:47;17.23;;;10.60;;
71317;SDS011;59106;44.706;18.310;2023-06-22T10:58:13;18.70;;;10.70;;
71317;SDS011;59106;44.706;18.310;2023-06-22T11:00:39;18.35;;;11.20;;
71317;SDS011;59106;44.706;18.310;2023-06-22T11:03:05;18.50;;;11.23;;
71317;SDS011;59106;44.706;18.310;2023-06-22T11:05:31;17.50;;;11.00;;
71317;SDS011;59106;44.706;18.310;2023-06-22T11:07:57;19.90;;;11.88;;
71317;SDS011;59106;44.706;18.310;2023-06-22T11:10:23;23.02;;;16.15;;
71317;SDS011;59106;44.706;18.310;2023-06-22T11:12:49;18.33;;;11.30;;
71317;SDS011;59106;44.706;18.310;2023-06-22T11:15:15;15.70;;;9.90;;
71317;SDS011;59106;44.706;18.310;2023-06-22T11:17:41;21.23;;;13.05;;
71317;SDS011;59106;44.706;18.310;2023-06-22T11:20:07;22.25;;;11.48;;
71317;SDS011;59106;44.706;18.310;2023-06-22T11:22:40;20.47;;;11.13;;
71317;SDS011;59106;44.706;18.310;2023-06-22T11:25:07;16.50;;;10.98;;
71317;SDS011;59106;44.706;18.310;2023-06-22T11:27:32;21.90;;;12.38;;
71317;SDS011;59106;44.706;18.310;2023-06-22T11:29:58;19.40;;;11.95;;
71317;SDS011;59106;44.706;18.310;2023-06-22T11:32:24;20.17;;;12.33;;
71317;SDS011;59106;44.706;18.310;2023-06-22T11:34:50;19.05;;;12.05;;
71317;SDS011;59106;44.706;18.310;2023-06-22T11:37:16;20.00;;;11.75;;
71317;SDS011;59106;44.706;18.310;2023-06-22T11:39:42;16.27;;;11.27;;
71317;SDS011;59106;44.706;18.310;2023-06-22T11:42:08;19.67;;;11.25;;
71317;SDS011;59106;44.706;18.310;2023-06-22T11:44:34;22.75;;;13.77;;
71317;SDS011;59106;44.706;18.310;2023-06-22T11:47:00;24.73;;;13.60;;
71317;SDS011;59106;44.706;18.310;2023-06-22T11:49:27;19.13;;;12.80;;
71317;SDS011;59106;44.706;18.310;2023-06-22T11:51:53;21.33;;;12.93;;
71317;SDS011;59106;44.706;18.310;2023-06-22T11:54:19;28.58;;;21.38;;
71317;SDS011;59106;44.706;18.310;2023-06-22T11:56:45;22.17;;;11.98;;
71317;SDS011;59106;44.706;18.310;2023-06-22T11:59:11;21.07;;;12.83;;
71317;SDS011;59106;44.706;18.310;2023-06-22T12:01:36;20.05;;;11.95;;
71317;SDS011;59106;44.706;18.310;2023-06-22T12:04:02;19.88;;;11.93;;
71317;SDS011;59106;44.706;18.310;2023-06-22T12:06:31;19.80;;;11.80;;
71317;SDS011;59106;44.706;18.310;2023-06-22T12:08:58;19.63;;;12.10;;
71317;SDS011;59106;44.706;18.310;2023-06-22T12:11:24;19.05;;;11.90;;
71317;SDS011;59106;44.706;18.310;2023-06-22T12:13:50;19.55;;;11.73;;
71317;SDS011;59106;44.706;18.310;2023-06-22T12:16:16;20.00;;;13.03;;
71317;SDS011;59106;44.706;18.310;2023-06-22T12:18:42;17.97;;;12.33;;
71317;SDS011;59106;44.706;18.310;2023-06-22T12:21:08;21.00;;;13.65;;
71317;SDS011;59106;44.706;18.310;2023-06-22T12:23:34;20.60;;;12.83;;
71317;SDS011;59106;44.706;18.310;2023-06-22T12:25:59;18.95;;;12.55;;
71317;SDS011;59106;44.706;18.310;2023-06-22T12:28:27;19.48;;;12.65;;
71317;SDS011;59106;44.706;18.310;2023-06-22T12:30:52;17.23;;;12.77;;
71317;SDS011;59106;44.706;18.310;2023-06-22T12:33:18;17.10;;;11.20;;
71317;SDS011;59106;44.706;18.310;2023-06-22T12:35:45;19.83;;;12.10;;
71317;SDS011;59106;44.706;18.310;2023-06-22T12:38:11;20.58;;;12.68;;
71317;SDS011;59106;44.706;18.310;2023-06-22T12:40:37;20.30;;;12.80;;
71317;SDS011;59106;44.706;18.310;2023-06-22T12:43:04;19.42;;;14.13;;
71317;SDS011;59106;44.706;18.310;2023-06-22T12:45:30;19.13;;;13.40;;
71317;SDS011;59106;44.706;18.310;2023-06-22T12:47:59;21.02;;;14.32;;
71317;SDS011;59106;44.706;18.310;2023-06-22T12:50:25;22.35;;;14.00;;
71317;SDS011;59106;44.706;18.310;2023-06-22T12:52:51;26.25;;;14.68;;
71317;SDS011;59106;44.706;18.310;2023-06-22T12:55:16;20.90;;;14.57;;
71317;SDS011;59106;44.706;18.310;2023-06-22T12:57:43;21.92;;;12.57;;
71317;SDS011;59106;44.706;18.310;2023-06-22T13:00:09;17.88;;;12.10;;
71317;SDS011;59106;44.706;18.310;2023-06-22T13:02:36;19.50;;;11.70;;
71317;SDS011;59106;44.706;18.310;2023-06-22T13:05:02;18.83;;;12.57;;
71317;SDS011;59106;44.706;18.310;2023-06-22T13:07:28;18.13;;;12.23;;
71317;SDS011;59106;44.706;18.310;2023-06-22T13:09:54;19.40;;;13.00;;
71317;SDS011;59106;44.706;18.310;2023-06-22T13:12:20;19.60;;;11.85;;
71317;SDS011;59106;44.706;18.310;2023-06-22T13:14:46;18.63;;;11.90;;
71317;SDS011;59106;44.706;18.310;2023-06-22T13:17:12;19.98;;;12.40;;
71317;SDS011;59106;44.706;18.310;2023-06-22T13:19:39;17.15;;;11.88;;
71317;SDS011;59106;44.706;18.310;2023-06-22T13:22:09;18.98;;;13.07;;
71317;SDS011;59106;44.706;18.310;2023-06-22T13:24:50;23.63;;;16.47;;
71317;SDS011;59106;44.706;18.310;2023-06-22T13:27:16;19.55;;;12.50;;
71317;SDS011;59106;44.706;18.310;2023-06-22T13:29:41;19.55;;;12.15;;
71317;SDS011;59106;44.706;18.310;2023-06-22T13:32:08;19.77;;;11.80;;
71317;SDS011;59106;44.706;18.310;2023-06-22T13:34:33;18.25;;;12.57;;
71317;SDS011;59106;44.706;18.310;2023-06-22T13:36:59;19.15;;;12.63;;
71317;SDS011;59106;44.706;18.310;2023-06-22T13:39:25;19.77;;;11.50;;
71317;SDS011;59106;44.706;18.310;2023-06-22T13:41:51;21.25;;;12.95;;
71317;SDS011;59106;44.706;18.310;2023-06-22T13:44:17;18.58;;;12.80;;
71317;SDS011;59106;44.706;18.310;2023-06-22T13:46:43;19.30;;;13.57;;
71317;SDS011;59106;44.706;18.310;2023-06-22T13:49:09;18.73;;;13.15;;
71317;SDS011;59106;44.706;18.310;2023-06-22T13:51:36;17.98;;;11.88;;
71317;SDS011;59106;44.706;18.310;2023-06-22T13:54:01;16.73;;;11.95;;
71317;SDS011;59106;44.706;18.310;2023-06-22T13:56:27;20.13;;;12.27;;
71317;SDS011;59106;44.706;18.310;2023-06-22T13:58:53;18.23;;;12.05;;
71317;SDS011;59106;44.706;18.310;2023-06-22T14:01:19;18.10;;;12.77;;
71317;SDS011;59106;44.706;18.310;2023-06-22T14:03:45;17.63;;;12.60;;
71317;SDS011;59106;44.706;18.310;2023-06-22T14:06:12;18.25;;;13.40;;
71317;SDS011;59106;44.706;18.310;2023-06-22T14:08:38;17.67;;;12.98;;
71317;SDS011;59106;44.706;18.310;2023-06-22T14:11:04;20.93;;;13.27;;